createdAt,value
2022-10-16T00:01:29.395Z,100.00
2022-10-16T00:03:57.343Z,100.00
2022-10-16T00:06:24.372Z,100.00
2022-10-16T00:08:51.647Z,100.00
2022-10-16T00:11:20.901Z,100.00
2022-10-16T00:13:48.974Z,100.00
2022-10-16T00:16:15.853Z,100.00
2022-10-16T00:18:42.936Z,100.00
2022-10-16T00:21:29.891Z,100.00
2022-10-16T00:24:02.722Z,100.00
2022-10-16T00:26:31.270Z,100.00
2022-10-16T00:28:58.369Z,100.00
2022-10-16T00:31:25.444Z,100.00
2022-10-16T00:33:52.400Z,100.00
2022-10-16T00:36:21.456Z,100.00
2022-10-16T00:38:48.583Z,100.00
2022-10-16T00:41:18.158Z,100.00
2022-10-16T00:43:47.042Z,100.00
2022-10-16T00:46:20.320Z,100.00
2022-10-16T00:48:52.968Z,100.00
2022-10-16T00:51:23.259Z,100.00
2022-10-16T00:53:50.418Z,100.00
2022-10-16T00:56:17.559Z,100.00
2022-10-16T00:58:44.418Z,100.00
2022-10-16T01:01:11.148Z,100.00
2022-10-16T01:03:38.268Z,100.00
2022-10-16T01:06:15.972Z,100.00
2022-10-16T01:08:51.030Z,100.00
2022-10-16T01:11:37.027Z,100.00
2022-10-16T01:14:12.930Z,100.00
2022-10-16T01:17:01.761Z,100.00
2022-10-16T01:19:42.106Z,100.00
2022-10-16T01:22:09.861Z,100.00
2022-10-16T01:24:41.747Z,100.00
2022-10-16T01:27:14.046Z,100.00
2022-10-16T01:29:50.885Z,100.00
2022-10-16T01:32:22.914Z,100.00
2022-10-16T01:34:56.699Z,100.00
2022-10-16T01:37:34.332Z,100.00
2022-10-16T01:40:04.296Z,100.00
2022-10-16T01:42:35.934Z,100.00
2022-10-16T01:45:04.049Z,100.00
2022-10-16T01:47:31.678Z,100.00
2022-10-16T01:49:59.850Z,100.00
2022-10-16T01:52:28.138Z,100.00
2022-10-16T01:54:56.575Z,100.00
2022-10-16T01:57:26.547Z,100.00
2022-10-16T01:59:56.114Z,100.00
2022-10-16T02:02:23.763Z,100.00
2022-10-16T02:04:54.526Z,100.00
2022-10-16T02:07:21.199Z,100.00
2022-10-16T02:09:47.894Z,100.00
2022-10-16T02:12:20.483Z,100.00
2022-10-16T02:14:47.113Z,100.00
2022-10-16T02:17:16.589Z,100.00
2022-10-16T02:19:44.624Z,100.00
2022-10-16T02:22:17.387Z,100.00
2022-10-16T02:25:06.161Z,100.00
2022-10-16T02:27:37.619Z,100.00
2022-10-16T02:30:16.049Z,100.00
2022-10-16T02:32:44.579Z,100.00
2022-10-16T02:35:11.671Z,100.00
2022-10-16T02:37:39.490Z,100.00
2022-10-16T02:40:06.897Z,100.00
2022-10-16T02:42:38.834Z,100.00
2022-10-16T02:45:06.572Z,100.00
2022-10-16T02:47:33.257Z,100.00
2022-10-16T02:50:00.280Z,100.00
2022-10-16T02:52:27.224Z,100.00
2022-10-16T02:54:54.016Z,100.00
2022-10-16T02:57:20.639Z,100.00
2022-10-16T02:59:47.544Z,100.00
2022-10-16T03:02:14.238Z,100.00
2022-10-16T03:04:40.853Z,100.00
2022-10-16T03:07:07.575Z,100.00
2022-10-16T03:09:34.455Z,100.00
2022-10-16T03:12:01.208Z,100.00
2022-10-16T03:16:55.335Z,100.00
2022-10-16T03:19:22.002Z,100.00
2022-10-16T03:21:48.676Z,100.00
2022-10-16T03:24:15.354Z,100.00
2022-10-16T03:26:42.042Z,100.00
2022-10-16T03:29:08.993Z,100.00
2022-10-16T03:31:35.614Z,100.00
2022-10-16T03:34:02.182Z,100.00
2022-10-16T03:36:28.813Z,100.00
2022-10-16T03:38:55.404Z,100.00
2022-10-16T03:41:22.134Z,100.00
2022-10-16T03:43:48.856Z,100.00
2022-10-16T03:46:15.442Z,100.00
2022-10-16T03:48:42.094Z,100.00
2022-10-16T03:51:08.761Z,100.00
2022-10-16T03:53:35.349Z,100.00
2022-10-16T03:56:01.991Z,100.00
2022-10-16T03:58:28.595Z,100.00
2022-10-16T04:00:55.387Z,100.00
2022-10-16T04:03:22.430Z,100.00
2022-10-16T04:05:49.143Z,100.00
2022-10-16T04:08:15.761Z,100.00
2022-10-16T04:10:45.707Z,100.00
2022-10-16T04:13:13.028Z,100.00
2022-10-16T04:15:40.123Z,100.00
2022-10-16T04:18:07.060Z,100.00
2022-10-16T04:20:34.307Z,100.00
2022-10-16T04:23:01.109Z,100.00
2022-10-16T04:25:27.849Z,100.00
2022-10-16T04:27:55.303Z,100.00
2022-10-16T04:30:22.722Z,100.00
2022-10-16T04:32:52.990Z,100.00
2022-10-16T04:35:21.160Z,100.00
2022-10-16T04:37:48.047Z,100.00
2022-10-16T04:40:15.057Z,100.00
2022-10-16T04:42:41.765Z,100.00
2022-10-16T04:45:12.001Z,100.00
2022-10-16T04:47:41.680Z,100.00
2022-10-16T04:50:08.894Z,100.00
2022-10-16T04:55:03.742Z,100.00
2022-10-16T04:57:30.724Z,100.00
2022-10-16T04:59:57.755Z,100.00
2022-10-16T05:02:24.612Z,100.00
2022-10-16T05:04:51.480Z,100.00
2022-10-16T05:07:18.567Z,100.00
2022-10-16T05:09:45.390Z,100.00
2022-10-16T05:12:12.184Z,100.00
2022-10-16T05:14:38.990Z,100.00
2022-10-16T05:17:05.839Z,100.00
2022-10-16T05:19:32.674Z,100.00
2022-10-16T05:21:59.346Z,100.00
2022-10-16T05:24:26.154Z,100.00
2022-10-16T05:26:53.167Z,100.00
2022-10-16T05:29:20.253Z,100.00
2022-10-16T05:31:46.979Z,100.00
2022-10-16T05:34:13.884Z,100.00
2022-10-16T05:36:40.706Z,100.00
2022-10-16T05:39:07.502Z,100.00
2022-10-16T05:41:34.310Z,100.00
2022-10-16T05:44:01.042Z,100.00
2022-10-16T05:46:27.871Z,100.00
2022-10-16T05:48:54.639Z,100.00
2022-10-16T05:51:21.468Z,100.00
2022-10-16T05:53:48.567Z,100.00
2022-10-16T05:56:17.903Z,100.00
2022-10-16T05:58:48.103Z,100.00
2022-10-16T06:01:17.650Z,100.00
2022-10-16T06:03:44.632Z,100.00
2022-10-16T06:06:13.517Z,100.00
2022-10-16T06:08:41.322Z,100.00
2022-10-16T06:11:10.556Z,100.00
2022-10-16T06:13:37.641Z,100.00
2022-10-16T06:16:05.159Z,100.00
2022-10-16T06:18:32.176Z,100.00
2022-10-16T06:20:59.988Z,100.00
2022-10-16T06:23:27.103Z,100.00
2022-10-16T06:25:53.888Z,100.00
2022-10-16T06:28:20.640Z,100.00
2022-10-16T06:30:47.565Z,100.00
2022-10-16T06:33:14.360Z,100.00
2022-10-16T06:35:41.258Z,100.00
2022-10-16T06:38:08.156Z,100.00
2022-10-16T06:40:34.958Z,100.00
2022-10-16T06:43:01.693Z,100.00
2022-10-16T06:45:28.335Z,100.00
2022-10-16T06:47:54.944Z,100.00
2022-10-16T06:50:21.580Z,100.00
2022-10-16T06:52:48.433Z,100.00
2022-10-16T06:55:15.726Z,100.00
2022-10-16T06:57:42.382Z,100.00
2022-10-16T07:00:09.430Z,100.00
2022-10-16T07:02:36.054Z,100.00
2022-10-16T07:05:02.731Z,100.00
2022-10-16T07:07:29.430Z,100.00
2022-10-16T07:09:56.034Z,100.00
2022-10-16T07:12:22.632Z,100.00
2022-10-16T07:14:49.228Z,100.00
2022-10-16T07:17:15.794Z,100.00
2022-10-16T07:19:42.373Z,100.00
2022-10-16T07:22:09.174Z,100.00
2022-10-16T07:24:35.847Z,100.00
2022-10-16T07:27:02.547Z,100.00
2022-10-16T07:29:29.167Z,100.00
2022-10-16T07:31:55.747Z,100.00
2022-10-16T07:34:25.395Z,100.00
2022-10-16T07:36:52.417Z,100.00
2022-10-16T07:39:19.220Z,100.00
2022-10-16T07:41:45.852Z,100.00
2022-10-16T07:44:12.606Z,100.00
2022-10-16T07:46:39.207Z,100.00
2022-10-16T07:49:05.828Z,100.00
2022-10-16T07:51:32.577Z,100.00
2022-10-16T07:53:59.554Z,100.00
2022-10-16T07:56:26.275Z,100.00
2022-10-16T07:58:53.086Z,100.00
2022-10-16T08:01:19.925Z,100.00
2022-10-16T08:03:48.317Z,100.00
2022-10-16T08:06:15.245Z,100.00
2022-10-16T08:08:42.001Z,100.00
2022-10-16T08:11:09.039Z,100.00
2022-10-16T08:13:35.925Z,100.00
2022-10-16T08:16:02.712Z,100.00
2022-10-16T08:18:29.419Z,100.00
2022-10-16T08:20:58.161Z,100.00
2022-10-16T08:23:26.858Z,100.00
2022-10-16T08:25:54.599Z,100.00
2022-10-16T08:28:21.529Z,100.00
2022-10-16T08:30:48.169Z,100.00
2022-10-16T08:33:14.960Z,100.00
2022-10-16T08:35:41.714Z,100.00
2022-10-16T08:38:08.401Z,100.00
2022-10-16T08:40:37.380Z,100.00
2022-10-16T08:43:31.629Z,100.00
2022-10-16T08:46:25.863Z,100.00
2022-10-16T08:48:54.594Z,100.00
2022-10-16T08:51:25.243Z,100.00
2022-10-16T08:53:57.355Z,100.00
2022-10-16T08:56:24.827Z,100.00
2022-10-16T08:58:55.268Z,100.00
2022-10-16T09:01:29.245Z,100.00
2022-10-16T09:04:17.462Z,100.00
2022-10-16T09:06:48.166Z,100.00
2022-10-16T09:09:21.487Z,100.00
2022-10-16T09:11:58.124Z,100.00
2022-10-16T09:14:44.905Z,100.00
2022-10-16T09:17:37.981Z,100.00
2022-10-16T09:20:23.487Z,100.00
2022-10-16T09:22:50.098Z,100.00
2022-10-16T09:25:19.207Z,98.18
2022-10-16T09:27:48.758Z,100.00
2022-10-16T09:30:20.254Z,100.00
2022-10-16T09:32:49.498Z,100.00
2022-10-16T09:35:32.598Z,93.48
2022-10-16T09:37:59.165Z,90.82
2022-10-16T09:40:39.542Z,90.07
2022-10-16T09:43:23.034Z,89.21
2022-10-16T09:45:58.007Z,82.45
2022-10-16T09:48:26.849Z,84.78
2022-10-16T09:51:00.987Z,81.59
2022-10-16T09:53:45.069Z,84.44
2022-10-16T09:56:14.693Z,83.77
2022-10-16T09:58:45.819Z,81.36
2022-10-16T10:01:14.752Z,75.66
2022-10-16T10:03:43.110Z,72.76
2022-10-16T10:06:27.598Z,76.62
2022-10-16T10:09:24.350Z,78.66
2022-10-16T10:11:58.836Z,78.39
2022-10-16T10:14:47.549Z,82.30
2022-10-16T10:17:18.485Z,81.51
2022-10-16T10:19:49.305Z,84.84
2022-10-16T10:22:28.761Z,82.84
2022-10-16T10:25:14.341Z,84.28
2022-10-16T10:27:44.999Z,83.35
2022-10-16T10:30:27.619Z,85.75
2022-10-16T10:33:20.583Z,86.34
2022-10-16T10:36:05.451Z,86.88
2022-10-16T10:38:50.084Z,86.59
2022-10-16T10:41:35.308Z,89.48
2022-10-16T10:44:39.179Z,92.03
2022-10-16T10:47:19.855Z,92.51
2022-10-16T10:50:02.053Z,91.17
2022-10-16T10:52:40.083Z,91.00
2022-10-16T10:55:25.042Z,90.94
2022-10-16T10:58:31.126Z,93.04
2022-10-16T11:01:13.419Z,93.42
2022-10-16T11:04:06.722Z,92.66
2022-10-16T11:06:41.217Z,92.16
2022-10-16T11:09:18.811Z,92.33
2022-10-16T11:11:53.023Z,93.02
2022-10-16T11:14:36.300Z,90.59
2022-10-16T11:17:11.941Z,91.91
2022-10-16T11:19:46.162Z,91.01
2022-10-16T11:22:30.501Z,87.99
2022-10-16T11:25:14.511Z,91.09
2022-10-16T11:27:50.368Z,92.66
2022-10-16T11:30:28.300Z,93.29
2022-10-16T11:33:10.626Z,92.78
2022-10-16T11:35:47.530Z,91.83
2022-10-16T11:38:28.084Z,92.72
2022-10-16T11:40:58.067Z,93.55
2022-10-16T11:43:38.330Z,93.80
2022-10-16T11:46:18.936Z,94.00
2022-10-16T11:48:52.820Z,90.01
2022-10-16T11:51:25.142Z,89.91
2022-10-16T11:54:03.436Z,88.98
2022-10-16T11:56:30.587Z,89.26
2022-10-16T11:59:02.123Z,85.24
2022-10-16T12:01:29.971Z,84.40
2022-10-16T12:04:16.295Z,81.86
2022-10-16T12:06:59.402Z,81.12
2022-10-16T12:09:29.011Z,81.99
2022-10-16T12:11:55.819Z,80.67
2022-10-16T12:14:28.739Z,80.11
2022-10-16T12:17:15.788Z,76.56
2022-10-16T12:19:42.486Z,73.91
2022-10-16T12:22:19.496Z,73.87
2022-10-16T12:24:46.151Z,73.42
2022-10-16T12:27:31.801Z,72.25
2022-10-16T12:30:01.294Z,70.23
2022-10-16T12:32:48.180Z,70.50
2022-10-16T12:35:27.609Z,69.64
2022-10-16T12:37:54.618Z,68.57
2022-10-16T12:40:28.198Z,71.10
2022-10-16T12:42:54.925Z,70.57
2022-10-16T12:45:30.657Z,68.84
2022-10-16T12:47:57.850Z,67.65
2022-10-16T12:50:39.319Z,68.09
2022-10-16T12:53:27.146Z,69.92
2022-10-16T12:56:05.708Z,70.24
2022-10-16T12:58:43.275Z,69.54
2022-10-16T13:01:19.125Z,67.97
2022-10-16T13:04:19.669Z,68.38
2022-10-16T13:07:08.848Z,66.44
2022-10-16T13:09:48.048Z,65.46
2022-10-16T13:12:36.094Z,64.57
2022-10-16T13:15:21.641Z,65.46
2022-10-16T13:18:04.593Z,66.97
2022-10-16T13:21:11.321Z,64.09
2022-10-16T13:24:02.535Z,65.92
2022-10-16T13:26:35.709Z,65.72
2022-10-16T13:29:02.878Z,63.57
2022-10-16T13:31:30.916Z,61.56
2022-10-16T13:34:00.284Z,61.70
2022-10-16T13:36:35.468Z,60.88
2022-10-16T13:39:12.010Z,61.22
2022-10-16T13:41:38.771Z,62.06
2022-10-16T13:44:06.379Z,61.74
2022-10-16T13:46:35.491Z,62.41
2022-10-16T13:49:11.650Z,61.55
2022-10-16T13:51:38.348Z,62.96
2022-10-16T13:54:05.123Z,63.29
2022-10-16T13:56:33.618Z,62.60
2022-10-16T13:59:06.554Z,61.92
2022-10-16T14:01:35.956Z,62.61
2022-10-16T14:04:07.495Z,63.72
2022-10-16T14:06:34.401Z,63.66
2022-10-16T14:09:08.037Z,62.65
2022-10-16T14:11:46.250Z,60.37
2022-10-16T14:14:13.434Z,61.83
2022-10-16T14:16:42.339Z,61.85
2022-10-16T14:19:19.390Z,60.67
2022-10-16T14:21:46.035Z,61.85
2022-10-16T14:24:14.871Z,60.89
2022-10-16T14:26:49.632Z,60.99
2022-10-16T14:29:21.131Z,60.86
2022-10-16T14:32:06.906Z,62.52
2022-10-16T14:34:35.849Z,64.48
2022-10-16T14:39:36.433Z,65.49
2022-10-16T14:42:03.082Z,64.42
2022-10-16T14:44:34.754Z,66.11
2022-10-16T14:47:14.325Z,63.63
2022-10-16T14:49:42.840Z,65.61
2022-10-16T14:52:11.002Z,65.32
2022-10-16T14:54:37.617Z,66.57
2022-10-16T14:57:04.459Z,66.29
2022-10-16T14:59:40.899Z,66.62
2022-10-16T15:02:29.672Z,67.27
2022-10-16T15:04:56.841Z,68.92
2022-10-16T15:07:24.001Z,69.38
2022-10-16T15:09:51.686Z,69.99
2022-10-16T15:12:18.641Z,70.88
2022-10-16T15:14:45.230Z,71.66
2022-10-16T15:17:12.080Z,71.90
2022-10-16T15:19:38.864Z,72.58
2022-10-16T15:22:05.478Z,72.58
2022-10-16T15:24:32.127Z,75.36
2022-10-16T15:26:58.714Z,77.49
2022-10-16T15:29:25.313Z,78.75
2022-10-16T15:31:52.107Z,81.24
2022-10-16T15:34:20.469Z,82.75
2022-10-16T15:36:47.107Z,83.86
2022-10-16T15:39:15.842Z,85.81
2022-10-16T15:41:43.094Z,86.76
2022-10-16T15:44:09.950Z,87.04
2022-10-16T15:46:38.099Z,88.93
2022-10-16T15:49:05.226Z,90.55
2022-10-16T15:51:34.079Z,91.29
2022-10-16T15:54:02.795Z,92.31
2022-10-16T15:56:30.306Z,92.55
2022-10-16T15:59:00.554Z,94.11
2022-10-16T16:01:29.923Z,95.92
2022-10-16T16:03:56.738Z,98.48
2022-10-16T16:06:24.813Z,100.00
2022-10-16T16:08:53.783Z,100.00
2022-10-16T16:11:21.086Z,100.00
2022-10-16T16:13:48.358Z,100.00
2022-10-16T16:16:16.726Z,100.00
2022-10-16T16:18:43.846Z,100.00
2022-10-16T16:21:12.248Z,100.00
2022-10-16T16:23:39.342Z,100.00
2022-10-16T16:26:24.852Z,100.00
2022-10-16T16:28:51.669Z,100.00
2022-10-16T16:31:22.795Z,100.00
2022-10-16T16:33:52.088Z,100.00
2022-10-16T16:36:21.455Z,100.00
2022-10-16T16:38:48.210Z,100.00
2022-10-16T16:41:21.742Z,100.00
2022-10-16T16:43:48.519Z,100.00
2022-10-16T16:46:16.115Z,100.00
2022-10-16T16:48:42.749Z,100.00
2022-10-16T16:51:20.917Z,100.00
2022-10-16T16:53:51.479Z,100.00
2022-10-16T16:56:21.030Z,100.00
2022-10-16T16:58:52.683Z,100.00
2022-10-16T17:01:21.385Z,100.00
2022-10-16T17:03:52.649Z,100.00
2022-10-16T17:06:21.494Z,100.00
2022-10-16T17:08:49.139Z,100.00
2022-10-16T17:11:18.454Z,100.00
2022-10-16T17:13:45.271Z,100.00
2022-10-16T17:16:12.036Z,100.00
2022-10-16T17:18:38.797Z,100.00
2022-10-16T17:21:08.211Z,100.00
2022-10-16T17:23:35.797Z,100.00
2022-10-16T17:26:08.523Z,100.00
2022-10-16T17:28:35.368Z,100.00
2022-10-16T17:33:40.957Z,100.00
2022-10-16T17:36:08.305Z,100.00
2022-10-16T17:38:38.177Z,100.00
2022-10-16T17:41:16.466Z,100.00
2022-10-16T17:43:43.596Z,100.00
2022-10-16T17:46:11.742Z,100.00
2022-10-16T17:48:39.493Z,100.00
2022-10-16T17:51:11.030Z,100.00
2022-10-16T17:53:37.918Z,100.00
2022-10-16T17:56:06.379Z,100.00
2022-10-16T17:58:32.989Z,100.00
2022-10-16T18:00:59.761Z,100.00
2022-10-16T18:03:27.074Z,100.00
2022-10-16T18:05:55.436Z,100.00
2022-10-16T18:08:26.395Z,100.00
2022-10-16T18:10:55.635Z,100.00
2022-10-16T18:13:22.318Z,100.00
2022-10-16T18:15:59.920Z,100.00
2022-10-16T18:18:28.899Z,100.00
2022-10-16T18:21:00.471Z,100.00
2022-10-16T18:23:27.914Z,100.00
2022-10-16T18:25:55.267Z,100.00
2022-10-16T18:28:23.670Z,100.00
2022-10-16T18:30:56.072Z,100.00
2022-10-16T18:33:22.681Z,100.00
2022-10-16T18:35:49.884Z,100.00
2022-10-16T18:38:16.779Z,100.00
2022-10-16T18:40:43.538Z,100.00
2022-10-16T18:43:10.269Z,100.00
2022-10-16T18:45:36.887Z,100.00
2022-10-16T18:48:04.014Z,100.00
2022-10-16T18:50:30.913Z,100.00
2022-10-16T18:52:57.737Z,100.00
2022-10-16T18:55:28.951Z,100.00
2022-10-16T18:57:57.427Z,100.00
2022-10-16T19:00:24.090Z,100.00
2022-10-16T19:02:50.819Z,100.00
2022-10-16T19:05:17.452Z,100.00
2022-10-16T19:07:46.321Z,100.00
2022-10-16T19:10:13.071Z,100.00
2022-10-16T19:12:41.183Z,100.00
2022-10-16T19:15:08.297Z,100.00
2022-10-16T19:17:37.116Z,100.00
2022-10-16T19:20:06.013Z,100.00
2022-10-16T19:22:54.061Z,100.00
2022-10-16T19:25:22.368Z,100.00
2022-10-16T19:27:50.198Z,100.00
2022-10-16T19:30:18.216Z,100.00
2022-10-16T19:32:46.117Z,100.00
2022-10-16T19:35:12.954Z,100.00
2022-10-16T19:37:39.841Z,100.00
2022-10-16T19:40:07.008Z,100.00
2022-10-16T19:42:33.769Z,100.00
2022-10-16T19:45:00.370Z,100.00
2022-10-16T19:47:27.029Z,100.00
2022-10-16T19:49:54.373Z,100.00
2022-10-16T19:52:22.282Z,100.00
2022-10-16T19:54:48.976Z,100.00
2022-10-16T19:57:15.663Z,100.00
2022-10-16T19:59:44.922Z,100.00
2022-10-16T20:02:12.435Z,100.00
2022-10-16T20:04:39.094Z,100.00
2022-10-16T20:07:05.904Z,100.00
2022-10-16T20:09:34.392Z,100.00
2022-10-16T20:12:02.289Z,100.00
2022-10-16T20:14:28.929Z,100.00
2022-10-16T20:16:56.017Z,100.00
2022-10-16T20:19:22.732Z,100.00
2022-10-16T20:21:49.401Z,100.00
2022-10-16T20:24:16.036Z,100.00
2022-10-16T20:26:42.684Z,100.00
2022-10-16T20:29:09.372Z,100.00
2022-10-16T20:31:36.605Z,100.00
2022-10-16T20:34:05.826Z,100.00
2022-10-16T20:36:33.464Z,100.00
2022-10-16T20:39:00.465Z,100.00
2022-10-16T20:41:27.058Z,100.00
2022-10-16T20:43:54.031Z,100.00
2022-10-16T20:46:23.714Z,100.00
2022-10-16T20:48:51.312Z,100.00
2022-10-16T20:51:29.485Z,100.00
2022-10-16T20:54:01.124Z,100.00
2022-10-16T20:56:30.261Z,100.00
2022-10-16T20:58:57.136Z,100.00
2022-10-16T21:01:25.813Z,100.00
2022-10-16T21:03:55.092Z,100.00
2022-10-16T21:06:21.881Z,100.00
2022-10-16T21:08:48.669Z,100.00
2022-10-16T21:11:24.784Z,100.00
2022-10-16T21:13:54.489Z,100.00
2022-10-16T21:16:21.811Z,100.00
2022-10-16T21:18:48.695Z,100.00
2022-10-16T21:21:32.665Z,100.00
2022-10-16T21:24:02.146Z,100.00
2022-10-16T21:26:29.997Z,100.00
2022-10-16T21:29:05.323Z,100.00
2022-10-16T21:31:33.210Z,100.00
2022-10-16T21:34:00.045Z,100.00
2022-10-16T21:36:29.105Z,100.00
2022-10-16T21:38:56.452Z,100.00
2022-10-16T21:41:25.117Z,100.00
2022-10-16T21:43:52.176Z,100.00
2022-10-16T21:46:20.655Z,100.00
2022-10-16T21:48:47.687Z,100.00
2022-10-16T21:51:15.467Z,100.00
2022-10-16T21:53:42.893Z,100.00
2022-10-16T21:56:17.468Z,100.00
2022-10-16T21:58:45.124Z,100.00
2022-10-16T22:01:14.597Z,100.00
2022-10-16T22:03:41.388Z,100.00
2022-10-16T22:06:09.073Z,100.00
2022-10-16T22:08:37.978Z,100.00
2022-10-16T22:11:22.366Z,100.00
2022-10-16T22:13:54.149Z,100.00
2022-10-16T22:16:25.185Z,100.00
2022-10-16T22:18:56.583Z,100.00
2022-10-16T22:21:23.725Z,100.00
2022-10-16T22:23:50.367Z,100.00
2022-10-16T22:26:16.991Z,100.00
2022-10-16T22:28:43.685Z,100.00
2022-10-16T22:31:15.705Z,100.00
2022-10-16T22:33:45.842Z,100.00
2022-10-16T22:36:13.961Z,100.00
2022-10-16T22:38:41.081Z,100.00
2022-10-16T22:41:10.316Z,100.00
2022-10-16T22:43:39.443Z,100.00
2022-10-16T22:46:07.887Z,100.00
2022-10-16T22:48:35.769Z,100.00
2022-10-16T22:51:03.419Z,100.00
2022-10-16T22:53:30.011Z,100.00
2022-10-16T22:55:56.861Z,100.00
2022-10-16T22:58:23.471Z,100.00
2022-10-16T23:00:50.334Z,100.00
2022-10-16T23:03:17.443Z,100.00
2022-10-16T23:05:44.227Z,100.00
2022-10-16T23:08:12.109Z,100.00
2022-10-16T23:10:39.859Z,100.00
2022-10-16T23:13:06.477Z,100.00
2022-10-16T23:15:33.101Z,100.00
2022-10-16T23:17:59.679Z,100.00
2022-10-16T23:20:26.290Z,100.00
2022-10-16T23:22:53.062Z,100.00
2022-10-16T23:25:19.672Z,100.00
2022-10-16T23:27:46.629Z,100.00
2022-10-16T23:30:13.491Z,100.00
2022-10-16T23:32:41.410Z,100.00
2022-10-16T23:35:09.527Z,100.00
2022-10-16T23:37:36.153Z,100.00
2022-10-16T23:40:02.808Z,100.00
2022-10-16T23:42:29.793Z,100.00
2022-10-16T23:44:56.722Z,100.00
2022-10-16T23:47:23.351Z,100.00
2022-10-16T23:49:49.969Z,100.00
2022-10-16T23:52:16.625Z,100.00
2022-10-16T23:54:43.286Z,100.00
2022-10-16T23:57:10.019Z,100.00
2022-10-16T23:59:36.783Z,100.00
